createdAt,value
2023-05-01T00:00:33.027Z,91569.97
2023-05-01T00:03:37.221Z,91590.25
2023-05-01T00:06:41.454Z,91595.69
2023-05-01T00:09:45.104Z,91596.50
2023-05-01T00:12:48.668Z,91609.31
2023-05-01T00:15:52.733Z,91564.13
2023-05-01T00:18:56.730Z,91544.09
2023-05-01T00:21:59.717Z,91576.19
2023-05-01T00:25:03.040Z,91544.53
2023-05-01T00:28:07.001Z,91562.09
2023-05-01T00:31:10.466Z,91549.97
2023-05-01T00:34:13.474Z,91565.25
2023-05-01T00:37:18.412Z,91548.06
2023-05-01T00:40:21.508Z,91546.63
2023-05-01T00:43:25.524Z,91581.66
2023-05-01T00:46:30.947Z,91549.78
2023-05-01T00:49:34.923Z,91544.13
2023-05-01T00:52:38.625Z,91521.31
2023-05-01T00:55:44.292Z,91539.00
2023-05-01T00:58:54.609Z,91534.69
2023-05-01T01:01:59.284Z,91526.19
2023-05-01T01:05:02.949Z,91534.91
2023-05-01T01:08:20.933Z,91531.59
2023-05-01T01:11:37.012Z,91531.41
2023-05-01T01:14:49.592Z,91527.41
2023-05-01T01:17:58.611Z,91551.59
2023-05-01T01:21:25.473Z,91541.78
2023-05-01T01:24:47.812Z,91551.34
2023-05-01T01:28:16.236Z,91545.59
2023-05-01T01:31:33.131Z,91558.09
2023-05-01T01:34:59.345Z,91561.34
2023-05-01T01:38:10.495Z,91547.47
2023-05-01T01:41:20.904Z,91538.03
2023-05-01T01:44:32.609Z,91541.44
2023-05-01T01:47:36.745Z,91542.13
2023-05-01T01:50:40.763Z,91535.38
2023-05-01T01:53:50.116Z,91538.69
2023-05-01T01:56:55.351Z,91535.06
2023-05-01T01:59:59.677Z,91514.81
2023-05-01T02:03:04.215Z,91519.81
2023-05-01T02:06:09.773Z,91524.97
2023-05-01T02:09:17.118Z,91522.69
2023-05-01T02:12:22.356Z,91519.72
2023-05-01T02:15:28.550Z,91521.03
2023-05-01T02:18:32.914Z,91508.91
2023-05-01T02:21:37.981Z,91504.16
2023-05-01T02:24:43.452Z,91506.44
2023-05-01T02:27:53.585Z,91500.72
2023-05-01T02:30:58.308Z,91480.78
2023-05-01T02:34:03.877Z,91485.78
2023-05-01T02:37:09.125Z,91488.78
2023-05-01T02:40:16.261Z,91491.41
2023-05-01T02:43:23.754Z,91491.66
2023-05-01T02:46:27.900Z,91497.63
2023-05-01T02:49:33.360Z,91495.97
2023-05-01T02:52:38.826Z,91502.03
2023-05-01T02:56:06.394Z,91492.53
2023-05-01T02:59:09.414Z,91501.56
2023-05-01T03:02:12.859Z,91501.22
2023-05-01T03:05:17.568Z,91483.66
2023-05-01T03:08:20.971Z,91490.97
2023-05-01T03:11:25.659Z,91490.84
2023-05-01T03:14:29.552Z,91489.94
2023-05-01T03:17:34.730Z,91510.28
2023-05-01T03:20:38.149Z,91498.69
2023-05-01T03:23:42.384Z,91485.75
2023-05-01T03:26:45.645Z,91481.81
2023-05-01T03:29:50.311Z,91468.03
2023-05-01T03:32:55.996Z,91472.44
2023-05-01T03:36:06.193Z,91467.50
2023-05-01T03:39:11.078Z,91453.00
2023-05-01T03:42:33.263Z,91454.88
2023-05-01T03:45:45.216Z,91449.38
2023-05-01T03:48:48.871Z,91445.31
2023-05-01T03:51:53.058Z,91466.34
2023-05-01T03:54:57.691Z,91457.44
2023-05-01T03:58:17.745Z,91442.78
2023-05-01T04:01:21.006Z,91447.81
2023-05-01T04:04:24.580Z,91447.31
2023-05-01T04:07:32.468Z,91447.13
2023-05-01T04:10:35.459Z,91446.50
2023-05-01T04:13:41.038Z,91439.75
2023-05-01T04:16:44.778Z,91437.28
2023-05-01T04:19:48.844Z,91442.13
2023-05-01T04:22:53.263Z,91441.94
2023-05-01T04:25:57.598Z,91448.41
2023-05-01T04:29:01.573Z,91436.00
2023-05-01T04:32:06.054Z,91432.66
2023-05-01T04:35:10.244Z,91431.31
2023-05-01T04:38:14.000Z,91441.19
2023-05-01T04:41:18.442Z,91442.31
2023-05-01T04:44:24.012Z,91435.84
2023-05-01T04:47:28.963Z,91431.28
2023-05-01T04:50:33.137Z,91428.53
2023-05-01T04:53:37.214Z,91435.84
2023-05-01T04:56:44.535Z,91442.75
2023-05-01T04:59:48.895Z,91440.09
2023-05-01T05:02:53.070Z,91443.81
2023-05-01T05:05:57.046Z,91439.69
2023-05-01T05:09:00.566Z,91434.97
2023-05-01T05:12:05.207Z,91432.91
2023-05-01T05:15:09.167Z,91421.91
2023-05-01T05:18:12.253Z,91420.97
2023-05-01T05:21:16.296Z,91415.81
2023-05-01T05:24:27.793Z,91420.41
2023-05-01T05:27:36.889Z,91424.41
2023-05-01T05:30:40.880Z,91418.56
2023-05-01T05:36:53.513Z,91417.09
2023-05-01T05:39:59.621Z,91416.63
2023-05-01T05:43:04.308Z,91409.38
2023-05-01T05:46:08.406Z,91412.38
2023-05-01T05:49:13.473Z,91402.38
2023-05-01T05:52:17.530Z,91413.63
2023-05-01T05:55:20.831Z,91414.44
2023-05-01T05:58:36.874Z,91410.28
2023-05-01T06:01:43.283Z,91403.13
2023-05-01T06:04:47.102Z,91407.63
2023-05-01T06:07:52.702Z,91391.53
2023-05-01T06:10:56.936Z,91400.69
2023-05-01T06:14:01.130Z,91394.94
2023-05-01T06:17:04.763Z,91393.25
2023-05-01T06:20:09.135Z,91389.72
2023-05-01T06:23:14.350Z,91378.69
2023-05-01T06:26:26.962Z,91376.44
2023-05-01T06:29:32.019Z,91375.16
2023-05-01T06:32:35.310Z,91374.31
2023-05-01T06:35:42.247Z,91370.25
2023-05-01T06:38:49.430Z,91373.56
2023-05-01T06:41:53.269Z,91365.41
2023-05-01T06:45:08.037Z,91364.94
2023-05-01T06:48:12.438Z,91366.31
2023-05-01T06:51:16.657Z,91373.66
2023-05-01T06:54:22.086Z,91375.91
2023-05-01T06:57:25.819Z,91376.47
2023-05-01T07:00:29.786Z,91379.63
2023-05-01T07:03:33.653Z,91378.28
2023-05-01T07:06:37.982Z,91368.50
2023-05-01T07:09:41.955Z,91376.00
2023-05-01T07:12:45.601Z,91376.59
2023-05-01T07:15:50.367Z,91373.56
2023-05-01T07:18:55.203Z,91364.94
2023-05-01T07:21:58.871Z,91371.13
2023-05-01T07:25:04.242Z,91364.59
2023-05-01T07:28:08.808Z,91364.66
2023-05-01T07:31:12.405Z,91371.66
2023-05-01T07:34:17.841Z,91379.25
2023-05-01T07:37:21.754Z,91373.41
2023-05-01T07:40:25.504Z,91371.44
2023-05-01T07:43:29.368Z,91365.91
2023-05-01T07:46:33.088Z,91369.94
2023-05-01T07:49:40.524Z,91371.50
2023-05-01T07:52:44.213Z,91373.38
2023-05-01T07:55:47.821Z,91370.91
2023-05-01T07:58:51.002Z,91360.44
2023-05-01T08:01:54.051Z,91375.50
2023-05-01T08:04:58.018Z,91376.34
2023-05-01T08:08:01.529Z,91376.13
2023-05-01T08:11:05.156Z,91370.00
2023-05-01T08:14:09.553Z,91372.44
2023-05-01T08:17:12.561Z,91376.91
2023-05-01T08:20:16.326Z,91375.75
2023-05-01T08:23:20.301Z,91373.81
2023-05-01T08:26:23.752Z,91374.41
2023-05-01T08:29:27.406Z,91372.66
2023-05-01T08:32:31.093Z,91373.69
2023-05-01T08:35:34.132Z,91381.16
2023-05-01T08:38:38.480Z,91375.16
2023-05-01T08:41:47.853Z,91377.56
2023-05-01T08:45:18.315Z,91369.75
2023-05-01T08:48:23.235Z,91374.94
2023-05-01T08:51:28.236Z,91377.56
2023-05-01T08:54:33.032Z,91382.41
2023-05-01T08:57:38.547Z,91387.94
2023-05-01T09:00:42.689Z,91389.09
2023-05-01T09:03:47.079Z,91382.09
2023-05-01T09:06:50.400Z,91393.91
2023-05-01T09:09:54.380Z,91390.34
2023-05-01T09:13:01.394Z,91400.56
2023-05-01T09:16:06.575Z,91396.88
2023-05-01T09:19:10.408Z,91404.91
2023-05-01T09:22:14.104Z,91415.56
2023-05-01T09:25:18.778Z,91424.44
2023-05-01T09:28:42.274Z,91423.44
2023-05-01T09:31:45.303Z,91441.81
2023-05-01T09:34:50.606Z,91438.28
2023-05-01T09:37:54.227Z,91442.56
2023-05-01T09:41:05.377Z,91443.19
2023-05-01T09:44:19.906Z,91443.16
2023-05-01T09:47:28.321Z,91458.78
2023-05-01T09:50:32.864Z,91470.44
2023-05-01T09:53:40.743Z,91479.03
2023-05-01T09:56:50.770Z,91489.03
2023-05-01T10:00:09.100Z,91493.09
2023-05-01T10:03:17.821Z,91500.34
2023-05-01T10:06:29.119Z,91517.72
2023-05-01T10:09:32.881Z,91517.94
2023-05-01T10:12:37.768Z,91530.84
2023-05-01T10:15:45.331Z,91531.69
2023-05-01T10:18:48.819Z,91548.53
2023-05-01T10:21:52.449Z,91560.91
2023-05-01T10:24:55.735Z,91541.28
2023-05-01T10:27:59.310Z,91551.69
2023-05-01T10:31:04.539Z,91556.97
2023-05-01T10:34:07.898Z,91571.00
2023-05-01T10:37:24.079Z,91585.59
2023-05-01T10:40:46.232Z,91580.78
2023-05-01T10:44:21.624Z,91575.56
2023-05-01T10:47:35.283Z,91583.47
2023-05-01T10:51:11.314Z,91599.88
2023-05-01T10:54:17.034Z,91591.41
2023-05-01T10:57:47.304Z,91604.84
2023-05-01T11:01:28.718Z,91596.66
2023-05-01T11:04:51.878Z,91599.31
2023-05-01T11:08:30.363Z,91603.16
2023-05-01T11:11:33.178Z,91609.78
2023-05-01T11:14:55.367Z,91606.66
2023-05-01T11:17:59.664Z,91608.78
2023-05-01T11:21:04.808Z,91614.03
2023-05-01T11:24:08.546Z,91628.22
2023-05-01T11:27:15.225Z,91626.19
2023-05-01T11:30:19.730Z,91626.88
2023-05-01T11:33:26.826Z,91627.78
2023-05-01T11:36:31.102Z,91632.72
2023-05-01T11:39:34.286Z,91630.13
2023-05-01T11:42:37.846Z,91639.91
2023-05-01T11:45:41.047Z,91643.91
2023-05-01T11:48:50.778Z,91646.38
2023-05-01T11:55:33.784Z,91656.84
2023-05-01T11:58:38.733Z,91662.59
2023-05-01T12:01:48.077Z,91664.47
2023-05-01T12:04:51.476Z,91675.94
2023-05-01T12:08:08.325Z,91678.19
2023-05-01T12:11:12.049Z,91682.16
2023-05-01T12:14:16.252Z,91692.38
2023-05-01T12:17:19.566Z,91693.22
2023-05-01T12:20:44.393Z,91696.84
2023-05-01T12:23:48.466Z,91697.47
2023-05-01T12:27:01.154Z,91708.81
2023-05-01T12:30:05.432Z,91704.94
2023-05-01T12:33:16.216Z,91710.13
2023-05-01T12:36:20.279Z,91719.31
2023-05-01T12:39:24.091Z,91719.28
2023-05-01T12:42:28.013Z,91717.69
2023-05-01T12:45:30.904Z,91717.13
2023-05-01T12:48:35.094Z,91720.38
2023-05-01T12:51:37.954Z,91710.78
2023-05-01T12:54:45.900Z,91729.16
2023-05-01T12:57:54.409Z,91731.91
2023-05-01T13:00:58.612Z,91732.16
2023-05-01T13:04:02.295Z,91738.34
2023-05-01T13:07:14.014Z,91741.06
2023-05-01T13:10:30.931Z,91733.88
2023-05-01T13:13:36.750Z,91734.09
2023-05-01T13:16:47.055Z,91736.25
2023-05-01T13:20:02.520Z,91723.44
2023-05-01T13:23:11.825Z,91731.50
2023-05-01T13:26:16.785Z,91729.44
2023-05-01T13:29:20.511Z,91734.38
2023-05-01T13:32:25.430Z,91735.06
2023-05-01T13:35:29.041Z,91738.78
2023-05-01T13:38:42.092Z,91737.50
2023-05-01T13:41:46.110Z,91733.88
2023-05-01T13:44:53.440Z,91737.97
2023-05-01T13:47:57.610Z,91731.25
2023-05-01T13:51:01.261Z,91742.09
2023-05-01T13:54:05.963Z,91733.06
2023-05-01T13:57:10.307Z,91734.44
2023-05-01T14:00:18.564Z,91743.81
2023-05-01T14:03:22.243Z,91732.38
2023-05-01T14:06:26.394Z,91733.66
2023-05-01T14:09:29.313Z,91725.69
2023-05-01T14:12:33.328Z,91728.84
2023-05-01T14:15:36.955Z,91731.91
2023-05-01T14:18:49.397Z,91739.84
2023-05-01T14:21:53.386Z,91737.72
2023-05-01T14:24:57.180Z,91747.47
2023-05-01T14:28:02.546Z,91739.53
2023-05-01T14:31:06.665Z,91735.91
2023-05-01T14:34:10.285Z,91734.09
2023-05-01T14:37:17.606Z,91745.06
2023-05-01T14:40:28.708Z,91752.19
2023-05-01T14:43:32.592Z,91750.78
2023-05-01T14:46:38.327Z,91759.63
2023-05-01T14:49:43.204Z,91761.78
2023-05-01T14:52:46.772Z,91760.44
2023-05-01T14:55:52.334Z,91752.09
2023-05-01T14:58:55.573Z,91755.00
2023-05-01T15:01:58.927Z,91753.94
2023-05-01T15:05:02.806Z,91753.72
2023-05-01T15:08:07.389Z,91756.09
2023-05-01T15:11:10.601Z,91766.97
2023-05-01T15:14:13.453Z,91756.19
2023-05-01T15:17:17.040Z,91755.19
2023-05-01T15:20:20.579Z,91758.78
2023-05-01T15:23:25.999Z,91749.31
2023-05-01T15:26:29.659Z,91750.72
2023-05-01T15:29:33.220Z,91751.16
2023-05-01T15:32:36.243Z,91764.56
2023-05-01T15:35:40.409Z,91766.53
2023-05-01T15:38:44.688Z,91767.03
2023-05-01T15:41:48.400Z,91761.19
2023-05-01T15:44:52.007Z,91770.41
2023-05-01T15:47:56.009Z,91772.75
2023-05-01T15:50:59.643Z,91764.63
2023-05-01T15:54:03.629Z,91765.91
2023-05-01T15:57:08.211Z,91761.69
2023-05-01T16:00:15.282Z,91771.34
2023-05-01T16:03:18.384Z,91764.66
2023-05-01T16:06:22.453Z,91761.75
2023-05-01T16:09:32.363Z,91752.91
2023-05-01T16:12:36.388Z,91749.72
2023-05-01T16:15:40.137Z,91742.97
2023-05-01T16:18:43.549Z,91733.66
2023-05-01T16:21:47.193Z,91737.06
2023-05-01T16:24:50.457Z,91736.16
2023-05-01T16:27:54.098Z,91726.09
2023-05-01T16:30:57.641Z,91716.75
2023-05-01T16:34:01.214Z,91721.97
2023-05-01T16:37:06.468Z,91728.13
2023-05-01T16:40:10.410Z,91729.56
2023-05-01T16:43:13.906Z,91732.59
2023-05-01T16:46:17.506Z,91715.06
2023-05-01T16:49:22.371Z,91711.09
2023-05-01T16:52:26.211Z,91701.69
2023-05-01T16:55:30.158Z,91706.63
2023-05-01T16:58:33.806Z,91701.91
2023-05-01T17:01:37.806Z,91689.00
2023-05-01T17:04:41.463Z,91700.06
2023-05-01T17:07:45.003Z,91704.50
2023-05-01T17:10:48.616Z,91699.38
2023-05-01T17:13:52.929Z,91705.25
2023-05-01T17:16:59.031Z,91700.75
2023-05-01T17:20:03.537Z,91712.75
2023-05-01T17:23:07.220Z,91731.94
2023-05-01T17:26:11.247Z,91739.69
2023-05-01T17:29:15.779Z,91756.59
2023-05-01T17:32:33.186Z,91770.44
2023-05-01T17:35:39.867Z,91758.25
2023-05-01T17:38:43.997Z,91760.53
2023-05-01T17:41:48.241Z,91748.34
2023-05-01T17:44:52.271Z,91748.31
2023-05-01T17:47:55.906Z,91741.28
2023-05-01T17:50:59.921Z,91749.25
2023-05-01T17:54:03.535Z,91755.03
2023-05-01T17:57:09.033Z,91770.88
2023-05-01T18:00:13.154Z,91766.78
2023-05-01T18:03:17.547Z,91760.84
2023-05-01T18:06:21.441Z,91773.91
2023-05-01T18:09:25.431Z,91764.13
2023-05-01T18:12:29.286Z,91755.03
2023-05-01T18:15:33.388Z,91759.75
2023-05-01T18:18:37.072Z,91757.44
2023-05-01T18:21:41.121Z,91760.84
2023-05-01T18:24:45.005Z,91760.34
2023-05-01T18:27:50.009Z,91763.56
2023-05-01T18:30:52.990Z,91756.84
2023-05-01T18:33:56.836Z,91759.38
2023-05-01T18:37:00.468Z,91763.34
2023-05-01T18:40:06.411Z,91763.72
2023-05-01T18:43:10.983Z,91758.78
2023-05-01T18:46:15.212Z,91764.53
2023-05-01T18:49:23.935Z,91756.97
2023-05-01T18:52:27.581Z,91765.06
2023-05-01T18:55:31.551Z,91777.59
2023-05-01T18:58:35.752Z,91780.41
2023-05-01T19:01:39.470Z,91790.41
2023-05-01T19:04:56.707Z,91787.84
2023-05-01T19:08:05.608Z,91781.75
2023-05-01T19:11:09.788Z,91772.34
2023-05-01T19:14:13.154Z,91769.25
2023-05-01T19:17:17.167Z,91764.69
2023-05-01T19:20:20.812Z,91759.22
2023-05-01T19:23:24.376Z,91763.81
2023-05-01T19:26:29.815Z,91769.84
2023-05-01T19:29:34.045Z,91782.94
2023-05-01T19:32:37.825Z,91775.94
2023-05-01T19:35:42.033Z,91774.75
2023-05-01T19:38:46.037Z,91780.38
2023-05-01T19:41:49.757Z,91785.06
2023-05-01T19:44:53.760Z,91802.66
2023-05-01T19:47:57.900Z,91805.75
2023-05-01T19:51:01.518Z,91792.69
2023-05-01T19:54:05.351Z,91795.31
2023-05-01T19:57:08.924Z,91781.13
2023-05-01T20:00:13.781Z,91767.97
2023-05-01T20:03:17.674Z,91768.78
2023-05-01T20:06:21.766Z,91771.06
2023-05-01T20:09:26.201Z,91774.97
2023-05-01T20:12:30.110Z,91769.97
2023-05-01T20:15:33.716Z,91763.69
2023-05-01T20:18:38.267Z,91754.03
2023-05-01T20:21:41.979Z,91747.19
2023-05-01T20:24:46.040Z,91750.66
2023-05-01T20:27:49.680Z,91754.91
2023-05-01T20:30:53.607Z,91737.81
2023-05-01T20:33:57.296Z,91714.69
2023-05-01T20:37:00.950Z,91702.00
2023-05-01T20:40:06.018Z,91698.91
2023-05-01T20:43:10.234Z,91698.84
2023-05-01T20:46:13.904Z,91693.22
2023-05-01T20:49:17.902Z,91687.88
2023-05-01T20:52:21.449Z,91707.13
2023-05-01T20:55:25.601Z,91713.66
2023-05-01T20:58:29.149Z,91718.91
2023-05-01T21:01:33.286Z,91739.84
2023-05-01T21:04:38.567Z,91748.19
2023-05-01T21:07:42.564Z,91748.53
2023-05-01T21:10:46.324Z,91747.81
2023-05-01T21:13:49.872Z,91761.19
2023-05-01T21:16:54.234Z,91770.41
2023-05-01T21:19:58.374Z,91761.38
2023-05-01T21:23:02.772Z,91780.81
2023-05-01T21:26:06.683Z,91800.97
2023-05-01T21:29:10.436Z,91807.47
2023-05-01T21:32:14.832Z,91809.13
2023-05-01T21:35:20.730Z,91845.88
2023-05-01T21:38:24.798Z,91843.78
2023-05-01T21:41:28.494Z,91839.00
2023-05-01T21:44:32.248Z,91860.91
2023-05-01T21:47:41.085Z,91881.88
2023-05-01T21:50:48.399Z,91900.41
2023-05-01T21:53:52.696Z,91913.25
2023-05-01T21:57:00.467Z,91937.25
2023-05-01T22:00:05.580Z,91945.63
2023-05-01T22:03:11.516Z,91942.75
2023-05-01T22:06:15.564Z,91934.75
2023-05-01T22:09:19.380Z,91958.88
2023-05-01T22:12:23.319Z,91975.34
2023-05-01T22:15:26.976Z,91954.72
2023-05-01T22:18:30.623Z,91960.56
2023-05-01T22:21:33.810Z,91983.84
2023-05-01T22:24:37.987Z,92001.16
2023-05-01T22:27:41.286Z,91975.59
2023-05-01T22:30:45.480Z,91990.84
2023-05-01T22:33:48.656Z,91992.53
2023-05-01T22:36:52.600Z,92002.03
2023-05-01T22:39:56.353Z,91992.13
2023-05-01T22:43:00.482Z,91977.50
2023-05-01T22:46:06.279Z,91978.53
2023-05-01T22:49:10.997Z,91974.78
2023-05-01T22:52:13.927Z,91974.78
2023-05-01T22:55:18.606Z,91970.34
2023-05-01T22:58:22.167Z,91976.25
2023-05-01T23:01:27.546Z,91966.72
2023-05-01T23:04:32.268Z,91959.13
2023-05-01T23:07:35.201Z,91958.34
2023-05-01T23:10:41.581Z,91949.25
2023-05-01T23:13:49.359Z,91959.81
2023-05-01T23:16:53.047Z,91958.47
2023-05-01T23:19:59.493Z,91951.19
2023-05-01T23:23:05.854Z,91943.34
2023-05-01T23:26:09.844Z,91933.69
2023-05-01T23:29:14.672Z,91927.94
2023-05-01T23:32:29.679Z,91958.50
2023-05-01T23:35:33.308Z,91961.75
2023-05-01T23:38:36.460Z,91973.41
2023-05-01T23:41:40.271Z,91978.88
2023-05-01T23:44:43.679Z,91985.41
2023-05-01T23:47:46.905Z,91989.63
2023-05-01T23:50:51.200Z,91997.69
2023-05-01T23:53:54.836Z,92004.00
2023-05-01T23:56:58.702Z,92018.81
